createdAt,value
2018-12-23T00:01:27.411Z,101255.94
2018-12-23T00:03:56.219Z,101253.08
2018-12-23T00:06:28.065Z,101262.55
2018-12-23T00:10:00.085Z,101260.16
2018-12-23T00:12:30.623Z,101261.64
2018-12-23T00:14:59.416Z,101267.94
2018-12-23T00:17:28.296Z,101270.11
2018-12-23T00:19:57.378Z,101272.56
2018-12-23T00:22:26.240Z,101271.42
2018-12-23T00:24:55.010Z,101269.70
2018-12-23T00:27:24.196Z,101266.03
2018-12-23T00:29:53.067Z,101269.59
2018-12-23T00:32:21.902Z,101266.96
2018-12-23T00:34:51.145Z,101272.39
2018-12-23T00:37:23.000Z,101281.20
2018-12-23T00:39:51.861Z,101288.02
2018-12-23T00:42:21.028Z,101286.98
2018-12-23T00:44:49.858Z,101290.78
2018-12-23T00:47:25.178Z,101285.05
2018-12-23T00:49:54.301Z,101282.86
2018-12-23T00:52:23.130Z,101271.53
2018-12-23T00:54:51.969Z,101275.53
2018-12-23T00:57:21.131Z,101276.61
2018-12-23T00:59:49.995Z,101265.38
2018-12-23T01:02:18.779Z,101274.98
2018-12-23T01:04:47.576Z,101289.32
2018-12-23T01:07:16.641Z,101285.30
2018-12-23T01:09:49.140Z,101287.20
2018-12-23T01:12:18.014Z,101289.47
2018-12-23T01:14:47.074Z,101289.81
2018-12-23T01:17:17.049Z,101296.68
2018-12-23T01:19:45.941Z,101315.34
2018-12-23T01:24:48.662Z,101316.59
2018-12-23T01:27:17.489Z,101305.45
2018-12-23T01:29:46.434Z,101305.73
2018-12-23T01:32:16.178Z,101302.77
2018-12-23T01:34:45.218Z,101318.59
2018-12-23T01:37:14.149Z,101307.45
2018-12-23T01:39:45.599Z,101307.75
2018-12-23T01:42:14.453Z,101306.78
2018-12-23T01:44:43.327Z,101307.52
2018-12-23T01:47:12.637Z,101298.78
2018-12-23T01:49:41.498Z,101295.87
2018-12-23T01:52:10.431Z,101304.19
2018-12-23T01:54:39.599Z,101297.36
2018-12-23T01:57:12.168Z,101297.98
2018-12-23T01:59:41.088Z,101305.23
2018-12-23T02:02:10.343Z,101305.92
2018-12-23T02:04:41.082Z,101297.02
2018-12-23T02:07:10.203Z,101301.53
2018-12-23T02:09:39.409Z,101308.48
2018-12-23T02:12:08.515Z,101314.95
2018-12-23T02:14:42.084Z,101313.86
2018-12-23T02:17:11.911Z,101305.76
2018-12-23T02:19:44.296Z,101304.19
2018-12-23T02:22:13.726Z,101306.59
2018-12-23T02:24:43.886Z,101307.40
2018-12-23T02:27:13.092Z,101316.23
2018-12-23T02:29:44.081Z,101312.94
2018-12-23T02:32:13.183Z,101318.52
2018-12-23T02:34:42.496Z,101323.83
2018-12-23T02:37:11.696Z,101328.75
2018-12-23T02:42:14.522Z,101319.22
2018-12-23T02:44:46.983Z,101315.34
2018-12-23T02:47:15.877Z,101314.92
2018-12-23T02:49:44.699Z,101319.15
2018-12-23T02:52:13.793Z,101315.86
2018-12-23T02:54:42.615Z,101315.17
2018-12-23T02:57:11.459Z,101304.19
2018-12-23T02:59:40.807Z,101298.21
2018-12-23T03:02:11.223Z,101295.52
2018-12-23T03:04:39.997Z,101300.50
2018-12-23T03:07:20.407Z,101302.25
2018-12-23T03:09:49.197Z,101294.83
2018-12-23T03:12:18.292Z,101301.11
2018-12-23T03:14:52.173Z,101305.48
2018-12-23T03:17:21.079Z,101305.97
2018-12-23T03:19:51.667Z,101302.83
2018-12-23T03:22:20.458Z,101297.75
2018-12-23T03:24:49.238Z,101300.75
2018-12-23T03:27:18.343Z,101308.84
2018-12-23T03:29:47.112Z,101302.41
2018-12-23T03:32:15.965Z,101294.61
2018-12-23T03:34:45.140Z,101303.09
2018-12-23T03:37:13.919Z,101306.52
2018-12-23T03:39:42.708Z,101311.91
2018-12-23T03:42:11.773Z,101311.76
2018-12-23T03:44:40.874Z,101308.20
2018-12-23T03:47:20.494Z,101310.95
2018-12-23T03:49:49.576Z,101313.36
2018-12-23T03:52:18.370Z,101313.58
2018-12-23T03:54:57.944Z,101314.16
2018-12-23T03:57:27.230Z,101321.31
2018-12-23T03:59:56.003Z,101326.58
2018-12-23T04:02:28.639Z,101328.36
2018-12-23T04:04:57.412Z,101326.36
2018-12-23T04:07:26.176Z,101320.88
2018-12-23T04:09:55.268Z,101321.08
2018-12-23T04:12:24.071Z,101321.48
2018-12-23T04:14:53.893Z,101308.28
2018-12-23T04:17:28.635Z,101312.12
2018-12-23T04:19:57.383Z,101315.41
2018-12-23T04:22:26.585Z,101307.32
2018-12-23T04:24:55.446Z,101307.05
2018-12-23T04:27:24.291Z,101305.86
2018-12-23T04:29:53.050Z,101296.83
2018-12-23T04:32:21.801Z,101301.50
2018-12-23T04:34:51.548Z,101296.31
2018-12-23T04:37:20.339Z,101302.24
2018-12-23T04:39:54.526Z,101305.56
2018-12-23T04:42:23.338Z,101303.39
2018-12-23T04:44:53.212Z,101308.00
2018-12-23T04:47:22.266Z,101310.59
2018-12-23T04:49:51.055Z,101306.53
2018-12-23T04:52:19.879Z,101307.40
2018-12-23T04:54:48.930Z,101312.70
2018-12-23T04:57:17.848Z,101310.63
2018-12-23T04:59:48.461Z,101309.44
2018-12-23T05:02:17.561Z,101316.38
2018-12-23T05:04:46.341Z,101316.52
2018-12-23T05:07:15.279Z,101311.91
2018-12-23T05:09:44.420Z,101306.38
2018-12-23T05:12:13.174Z,101311.23
2018-12-23T05:14:42.067Z,101309.95
2018-12-23T05:17:10.957Z,101306.15
2018-12-23T05:19:39.948Z,101309.16
2018-12-23T05:22:09.177Z,101302.44
2018-12-23T05:27:45.363Z,101294.92
2018-12-23T05:30:15.169Z,101306.95
2018-12-23T05:32:44.928Z,101304.86
2018-12-23T05:35:17.937Z,101315.50
2018-12-23T05:37:50.773Z,101311.23
2018-12-23T05:40:20.666Z,101311.98
2018-12-23T05:42:53.299Z,101313.66
2018-12-23T05:45:23.366Z,101310.88
2018-12-23T05:47:53.417Z,101304.86
2018-12-23T05:50:26.427Z,101301.95
2018-12-23T05:52:56.163Z,101302.59
2018-12-23T05:55:30.164Z,101303.88
2018-12-23T05:58:09.038Z,101301.06
2018-12-23T06:00:39.101Z,101302.06
2018-12-23T06:03:12.004Z,101300.97
2018-12-23T06:05:41.806Z,101307.73
2018-12-23T06:08:11.949Z,101303.89
2018-12-23T06:10:41.737Z,101303.05
2018-12-23T06:13:11.511Z,101314.84
2018-12-23T06:15:44.200Z,101310.76
2018-12-23T06:18:14.213Z,101318.11
2018-12-23T06:20:47.531Z,101318.05
2018-12-23T06:23:17.244Z,101314.11
2018-12-23T06:25:46.994Z,101317.83
2018-12-23T06:28:17.092Z,101320.87
2018-12-23T06:30:47.034Z,101316.30
2018-12-23T06:33:16.808Z,101321.61
2018-12-23T06:35:46.907Z,101325.25
2018-12-23T06:38:22.648Z,101329.63
2018-12-23T06:40:52.434Z,101339.91
2018-12-23T06:43:22.567Z,101339.69
2018-12-23T06:45:52.339Z,101338.45
2018-12-23T06:48:22.130Z,101343.30
2018-12-23T06:51:06.128Z,101346.98
2018-12-23T06:53:35.925Z,101342.95
2018-12-23T06:56:08.434Z,101344.56
2018-12-23T06:58:41.174Z,101344.50
2018-12-23T07:01:10.956Z,101343.81
2018-12-23T07:03:40.998Z,101340.41
2018-12-23T07:06:10.776Z,101350.53
2018-12-23T07:08:40.508Z,101343.40
2018-12-23T07:11:10.548Z,101343.75
2018-12-23T07:13:50.742Z,101344.03
2018-12-23T07:16:11.726Z,101343.91
2018-12-23T07:18:47.781Z,101352.22
2018-12-23T07:21:17.627Z,101347.55
2018-12-23T07:23:47.339Z,101352.29
2018-12-23T07:26:18.858Z,101349.52
2018-12-23T07:28:48.608Z,101346.47
2018-12-23T07:31:18.664Z,101351.13
2018-12-23T07:33:48.568Z,101337.34
2018-12-23T07:36:18.283Z,101342.09
2018-12-23T07:38:54.408Z,101337.64
2018-12-23T07:41:24.147Z,101332.52
2018-12-23T07:43:53.937Z,101331.66
2018-12-23T07:46:24.142Z,101331.02
2018-12-23T07:49:03.057Z,101338.37
2018-12-23T07:51:42.010Z,101334.20
2018-12-23T07:54:11.744Z,101339.09
2018-12-23T07:56:41.487Z,101339.16
2018-12-23T07:59:12.580Z,101333.84
2018-12-23T08:01:48.777Z,101337.84
2018-12-23T08:04:18.560Z,101338.07
2018-12-23T08:06:49.600Z,101334.20
2018-12-23T08:09:22.495Z,101342.94
2018-12-23T08:11:52.329Z,101337.55
2018-12-23T08:14:22.049Z,101336.53
2018-12-23T08:16:53.538Z,101341.24
2018-12-23T08:19:23.616Z,101340.47
2018-12-23T08:22:00.767Z,101339.16
2018-12-23T08:24:30.556Z,101337.75
2018-12-23T08:27:06.224Z,101334.68
2018-12-23T08:29:36.020Z,101334.91
2018-12-23T08:32:08.861Z,101338.72
2018-12-23T08:34:38.791Z,101338.72
2018-12-23T08:37:08.874Z,101335.99
2018-12-23T08:39:45.121Z,101343.80
2018-12-23T08:42:14.920Z,101343.06
2018-12-23T08:44:47.856Z,101345.05
2018-12-23T08:47:17.979Z,101339.38
2018-12-23T08:49:47.851Z,101339.06
2018-12-23T08:52:17.614Z,101340.02
2018-12-23T08:55:01.893Z,101330.97
2018-12-23T08:57:19.125Z,101330.68
2018-12-23T08:59:48.965Z,101328.79
2018-12-23T09:02:19.010Z,101333.30
2018-12-23T09:04:48.794Z,101324.98
2018-12-23T09:07:25.840Z,101326.52
2018-12-23T09:09:57.187Z,101324.94
2018-12-23T09:12:27.279Z,101320.58
2018-12-23T09:15:00.531Z,101323.05
2018-12-23T09:17:32.778Z,101320.18
2018-12-23T09:20:05.821Z,101315.21
2018-12-23T09:22:41.927Z,101311.41
2018-12-23T09:25:15.334Z,101312.77
2018-12-23T09:27:45.529Z,101309.34
2018-12-23T09:30:21.398Z,101302.05
2018-12-23T09:32:51.840Z,101297.22
2018-12-23T09:35:21.865Z,101291.34
2018-12-23T09:38:01.548Z,101294.86
2018-12-23T09:40:29.908Z,101294.48
2018-12-23T09:42:59.788Z,101287.05
2018-12-23T09:45:31.447Z,101286.15
2018-12-23T09:48:01.809Z,101286.08
2018-12-23T09:50:32.854Z,101283.69
2018-12-23T09:53:03.086Z,101279.67
2018-12-23T09:55:33.476Z,101279.27
2018-12-23T09:58:09.181Z,101280.05
2018-12-23T10:00:39.264Z,101273.73
2018-12-23T10:03:09.031Z,101271.63
2018-12-23T10:05:38.819Z,101255.34
2018-12-23T10:08:10.193Z,101250.84
2018-12-23T10:10:44.669Z,101248.95
2018-12-23T10:13:14.443Z,101244.54
2018-12-23T10:15:50.323Z,101245.78
2018-12-23T10:18:20.539Z,101237.45
2018-12-23T10:20:51.356Z,101238.80
2018-12-23T10:23:21.124Z,101241.20
2018-12-23T10:25:51.244Z,101233.88
2018-12-23T10:28:21.107Z,101227.20
2018-12-23T10:30:56.851Z,101232.05
2018-12-23T10:33:26.851Z,101233.84
2018-12-23T10:36:09.132Z,101227.92
2018-12-23T10:38:46.523Z,101221.23
2018-12-23T10:41:16.306Z,101218.80
2018-12-23T10:43:46.140Z,101209.19
2018-12-23T10:46:15.964Z,101197.44
2018-12-23T10:48:45.778Z,101196.53
2018-12-23T10:51:15.803Z,101192.52
2018-12-23T10:53:46.159Z,101187.26
2018-12-23T10:56:16.222Z,101187.33
2018-12-23T10:58:46.921Z,101175.61
2018-12-23T11:01:21.244Z,101166.48
2018-12-23T11:03:51.057Z,101164.12
2018-12-23T11:06:23.258Z,101157.43
2018-12-23T11:08:56.586Z,101152.49
2018-12-23T11:11:37.819Z,101139.02
2018-12-23T11:14:01.511Z,101136.84
2018-12-23T11:16:37.714Z,101128.55
2018-12-23T11:19:07.788Z,101127.12
2018-12-23T11:21:40.339Z,101114.44
2018-12-23T11:24:10.091Z,101115.16
2018-12-23T11:26:40.443Z,101102.75
2018-12-23T11:29:10.262Z,101095.13
2018-12-23T11:31:40.828Z,101098.47
2018-12-23T11:34:11.037Z,101089.12
2018-12-23T11:36:42.991Z,101082.19
2018-12-23T11:39:12.733Z,101082.62
2018-12-23T11:41:42.982Z,101087.36
2018-12-23T11:44:18.733Z,101079.41
2018-12-23T11:46:48.626Z,101076.19
2018-12-23T11:49:21.245Z,101076.14
2018-12-23T11:51:51.005Z,101069.14
2018-12-23T11:54:24.204Z,101065.20
2018-12-23T11:56:53.931Z,101060.68
2018-12-23T11:59:36.081Z,101060.20
2018-12-23T12:02:15.050Z,101059.05
2018-12-23T12:04:38.368Z,101056.94
2018-12-23T12:07:08.128Z,101054.00
2018-12-23T12:09:38.415Z,101054.17
2018-12-23T12:12:08.354Z,101048.34
2018-12-23T12:14:38.084Z,101045.38
2018-12-23T12:17:08.341Z,101035.19
2018-12-23T12:19:38.073Z,101029.58
2018-12-23T12:22:12.292Z,101026.95
2018-12-23T12:24:39.772Z,101023.66
2018-12-23T12:27:17.219Z,101017.69
2018-12-23T12:29:47.644Z,101015.84
2018-12-23T12:32:17.537Z,101002.45
2018-12-23T12:34:47.297Z,100999.87
2018-12-23T12:37:17.408Z,100994.85
2018-12-23T12:39:47.690Z,100996.64
2018-12-23T12:42:26.293Z,100987.66
2018-12-23T12:44:56.403Z,100982.34
2018-12-23T12:47:37.672Z,100974.20
2018-12-23T12:50:12.502Z,100975.97
2018-12-23T12:52:42.448Z,100975.03
2018-12-23T12:55:15.556Z,100961.31
2018-12-23T12:57:45.334Z,100963.22
2018-12-23T13:00:21.360Z,100952.80
2018-12-23T13:02:54.654Z,100944.58
2018-12-23T13:05:24.736Z,100936.98
2018-12-23T13:07:54.878Z,100935.61
2018-12-23T13:10:25.000Z,100927.98
2018-12-23T13:12:55.131Z,100919.27
2018-12-23T13:15:28.247Z,100909.55
2018-12-23T13:17:59.258Z,100902.98
2018-12-23T13:20:29.781Z,100899.67
2018-12-23T13:23:12.959Z,100889.66
2018-12-23T13:25:43.777Z,100887.07
2018-12-23T13:28:19.772Z,100874.35
2018-12-23T13:30:53.182Z,100858.27
2018-12-23T13:33:28.194Z,100853.87
2018-12-23T13:35:58.296Z,100844.44
2018-12-23T13:38:28.706Z,100834.30
2018-12-23T13:41:25.813Z,100834.43
2018-12-23T13:44:15.218Z,100833.33
2018-12-23T13:47:30.917Z,100823.87
2018-12-23T13:50:37.023Z,100816.66
2018-12-23T13:53:50.336Z,100818.25
2018-12-23T13:56:53.134Z,100809.55
2018-12-23T14:00:10.763Z,100805.25
2018-12-23T14:03:23.934Z,100804.92
2018-12-23T14:06:11.730Z,100785.77
2018-12-23T14:09:17.177Z,100786.30
2018-12-23T14:11:58.800Z,100779.73
2018-12-23T14:14:28.855Z,100761.52
2018-12-23T14:16:59.048Z,100758.66
2018-12-23T14:19:33.391Z,100752.09
2018-12-23T14:22:05.572Z,100746.80
2018-12-23T14:24:38.244Z,100736.59
2018-12-23T14:27:08.103Z,100740.61
2018-12-23T14:29:38.635Z,100734.94
2018-12-23T14:32:11.669Z,100731.29
2018-12-23T14:34:41.532Z,100716.61
2018-12-23T14:37:17.317Z,100710.75
2018-12-23T14:39:47.069Z,100701.64
2018-12-23T14:42:17.219Z,100694.87
2018-12-23T14:44:49.344Z,100688.19
2018-12-23T14:47:22.323Z,100672.58
2018-12-23T14:49:52.310Z,100666.55
2018-12-23T14:52:22.739Z,100651.91
2018-12-23T14:54:55.403Z,100647.22
2018-12-23T14:57:25.425Z,100646.66
2018-12-23T14:59:55.475Z,100639.00
2018-12-23T15:02:25.574Z,100634.98
2018-12-23T15:04:57.230Z,100626.00
2018-12-23T15:07:26.997Z,100623.99
2018-12-23T15:09:56.750Z,100620.22
2018-12-23T15:12:26.604Z,100617.03
2018-12-23T15:14:56.764Z,100614.03
2018-12-23T15:17:30.134Z,100606.13
2018-12-23T15:19:59.917Z,100599.03
2018-12-23T15:22:30.018Z,100596.17
2018-12-23T15:24:59.850Z,100588.01
2018-12-23T15:27:29.610Z,100582.92
2018-12-23T15:29:59.755Z,100570.18
2018-12-23T15:35:07.650Z,100558.54
2018-12-23T15:37:37.548Z,100561.41
2018-12-23T15:40:07.521Z,100563.75
2018-12-23T15:42:37.909Z,100557.20
2018-12-23T15:45:10.385Z,100547.00
2018-12-23T15:47:40.288Z,100550.48
2018-12-23T15:50:10.461Z,100547.89
2018-12-23T15:52:40.399Z,100541.30
2018-12-23T15:55:10.265Z,100548.42
2018-12-23T15:57:40.620Z,100541.16
2018-12-23T16:00:10.679Z,100543.34
2018-12-23T16:02:47.956Z,100543.78
2018-12-23T16:05:18.411Z,100537.63
2018-12-23T16:07:48.297Z,100533.86
2018-12-23T16:10:18.225Z,100524.89
2018-12-23T16:12:48.492Z,100514.39
2018-12-23T16:15:18.379Z,100512.73
2018-12-23T16:17:54.769Z,100501.52
2018-12-23T16:20:25.190Z,100495.73
2018-12-23T16:22:55.087Z,100491.34
2018-12-23T16:25:35.542Z,100489.05
2018-12-23T16:27:57.486Z,100482.25
2018-12-23T16:30:30.567Z,100475.16
2018-12-23T16:33:00.710Z,100476.23
2018-12-23T16:35:31.105Z,100476.05
2018-12-23T16:38:00.961Z,100472.75
2018-12-23T16:40:31.062Z,100468.91
2018-12-23T16:43:01.547Z,100464.03
2018-12-23T16:45:31.593Z,100461.10
2018-12-23T16:48:02.697Z,100457.94
2018-12-23T16:50:32.892Z,100455.17
2018-12-23T16:53:02.845Z,100446.36
2018-12-23T16:55:35.808Z,100446.76
2018-12-23T16:58:06.693Z,100452.86
2018-12-23T17:00:40.020Z,100457.03
2018-12-23T17:03:14.666Z,100449.38
2018-12-23T17:05:50.544Z,100447.67
2018-12-23T17:08:22.459Z,100440.98
2018-12-23T17:11:03.580Z,100437.81
2018-12-23T17:13:35.358Z,100431.56
2018-12-23T17:16:06.232Z,100430.30
2018-12-23T17:18:36.447Z,100436.87
2018-12-23T17:21:06.955Z,100432.79
2018-12-23T17:23:37.177Z,100432.93
2018-12-23T17:26:09.674Z,100421.44
2018-12-23T17:28:40.232Z,100415.41
2018-12-23T17:31:10.375Z,100415.02
2018-12-23T17:33:47.676Z,100417.09
2018-12-23T17:36:18.073Z,100413.78
2018-12-23T17:38:48.167Z,100411.82
2018-12-23T17:41:18.363Z,100410.14
2018-12-23T17:43:48.563Z,100409.41
2018-12-23T17:46:24.866Z,100397.32
2018-12-23T17:48:55.175Z,100400.45
2018-12-23T17:51:25.355Z,100405.64
2018-12-23T17:53:59.259Z,100398.29
2018-12-23T17:56:30.675Z,100404.00
2018-12-23T17:59:00.745Z,100416.44
2018-12-23T18:01:36.887Z,100422.31
2018-12-23T18:04:14.860Z,100422.67
2018-12-23T18:06:45.153Z,100416.51
2018-12-23T18:09:18.579Z,100420.88
2018-12-23T18:11:52.825Z,100417.61
2018-12-23T18:14:28.767Z,100418.87
2018-12-23T18:16:58.962Z,100413.30
2018-12-23T18:19:29.530Z,100418.23
2018-12-23T18:22:05.346Z,100408.48
2018-12-23T18:24:35.625Z,100406.06
2018-12-23T18:27:05.927Z,100399.89
2018-12-23T18:29:36.026Z,100407.13
2018-12-23T18:32:09.387Z,100398.91
2018-12-23T18:34:42.327Z,100401.59
2018-12-23T18:37:12.495Z,100401.50
2018-12-23T18:39:42.694Z,100395.90
2018-12-23T18:42:12.799Z,100395.44
2018-12-23T18:44:43.336Z,100384.62
2018-12-23T18:47:13.711Z,100392.23
2018-12-23T18:49:43.893Z,100401.07
2018-12-23T18:52:14.379Z,100397.93
2018-12-23T18:54:44.737Z,100396.31
2018-12-23T18:57:18.392Z,100391.02
2018-12-23T18:59:50.028Z,100387.42
2018-12-23T19:02:27.558Z,100384.83
2018-12-23T19:04:58.303Z,100384.17
2018-12-23T19:07:28.545Z,100383.05
2018-12-23T19:10:12.071Z,100383.30
2018-12-23T19:13:24.959Z,100385.92
2018-12-23T19:16:50.887Z,100375.98
2018-12-23T19:20:08.392Z,100378.16
2018-12-23T19:23:22.074Z,100374.97
2018-12-23T19:26:30.912Z,100379.06
2018-12-23T19:29:38.426Z,100376.05
2018-12-23T19:33:01.734Z,100373.53
2018-12-23T19:35:57.122Z,100377.12
2018-12-23T19:38:44.471Z,100376.72
2018-12-23T19:41:47.777Z,100370.08
2018-12-23T19:44:31.872Z,100373.46
2018-12-23T19:47:47.357Z,100367.16
2018-12-23T19:50:57.910Z,100360.30
2018-12-23T19:53:59.854Z,100357.46
2018-12-23T19:57:37.608Z,100360.57
2018-12-23T20:00:42.220Z,100360.57
2018-12-23T20:03:37.137Z,100361.51
2018-12-23T20:06:57.442Z,100358.03
2018-12-23T20:09:51.773Z,100337.80
2018-12-23T20:12:58.632Z,100349.92
2018-12-23T20:16:06.606Z,100349.74
2018-12-23T20:19:32.881Z,100353.97
2018-12-23T20:22:55.549Z,100348.25
2018-12-23T20:26:04.916Z,100344.97
2018-12-23T20:29:19.333Z,100342.13
2018-12-23T20:32:29.172Z,100342.98
2018-12-23T20:35:36.322Z,100340.41
2018-12-23T20:38:48.787Z,100328.45
2018-12-23T20:41:58.370Z,100337.03
2018-12-23T20:45:27.211Z,100336.57
2018-12-23T20:48:55.873Z,100334.86
2018-12-23T20:52:14.507Z,100322.08
2018-12-23T20:55:30.533Z,100315.59
2018-12-23T20:58:30.692Z,100313.20
2018-12-23T21:01:38.364Z,100308.11
2018-12-23T21:04:58.809Z,100302.22
2018-12-23T21:07:52.921Z,100317.98
2018-12-23T21:11:15.992Z,100310.64
2018-12-23T21:14:39.547Z,100322.68
2018-12-23T21:17:36.811Z,100322.84
2018-12-23T21:20:49.274Z,100319.53
2018-12-23T21:23:54.586Z,100318.27
2018-12-23T21:27:09.965Z,100320.50
2018-12-23T21:30:22.769Z,100323.42
2018-12-23T21:33:39.390Z,100301.66
2018-12-23T21:36:59.411Z,100312.83
2018-12-23T21:40:09.872Z,100305.94
2018-12-23T21:43:06.972Z,100305.94
2018-12-23T21:46:17.708Z,100290.95
2018-12-23T21:49:32.554Z,100295.45
2018-12-23T21:52:40.951Z,100301.00
2018-12-23T21:55:56.103Z,100275.99
2018-12-23T21:59:02.234Z,100267.89
2018-12-23T22:02:26.587Z,100265.46
2018-12-23T22:05:43.172Z,100257.84
2018-12-23T22:08:57.394Z,100241.33
2018-12-23T22:11:51.547Z,100233.95
2018-12-23T22:14:21.923Z,100226.15
2018-12-23T22:16:51.842Z,100215.79
2018-12-23T22:19:21.603Z,100218.27
2018-12-23T22:21:51.976Z,100211.20
2018-12-23T22:24:21.826Z,100221.18
2018-12-23T22:26:53.272Z,100234.09
2018-12-23T22:29:24.431Z,100223.23
2018-12-23T22:32:03.010Z,100224.98
2018-12-23T22:34:33.399Z,100222.69
2018-12-23T22:37:03.514Z,100217.91
2018-12-23T22:39:46.487Z,100217.25
2018-12-23T22:42:17.309Z,100207.08
2018-12-23T22:44:47.734Z,100215.11
2018-12-23T22:47:29.033Z,100211.19
2018-12-23T22:49:50.906Z,100215.58
2018-12-23T22:52:21.695Z,100221.91
2018-12-23T22:54:56.837Z,100219.17
2018-12-23T22:57:27.296Z,100202.55
2018-12-23T22:59:57.879Z,100210.58
2018-12-23T23:02:28.154Z,100202.27
2018-12-23T23:04:58.297Z,100198.70
2018-12-23T23:07:28.571Z,100199.17
2018-12-23T23:09:58.844Z,100194.52
2018-12-23T23:12:29.522Z,100190.67
2018-12-23T23:14:59.937Z,100190.45
2018-12-23T23:17:30.281Z,100179.89
2018-12-23T23:20:00.965Z,100181.28
2018-12-23T23:22:30.855Z,100173.56
2018-12-23T23:25:02.725Z,100162.42
2018-12-23T23:27:33.151Z,100158.12
2018-12-23T23:30:05.864Z,100162.00
2018-12-23T23:32:39.237Z,100162.00
2018-12-23T23:35:09.569Z,100160.84
2018-12-23T23:37:39.774Z,100151.36
2018-12-23T23:40:14.067Z,100150.70
2018-12-23T23:42:43.854Z,100146.91
2018-12-23T23:45:13.590Z,100149.93
2018-12-23T23:47:50.817Z,100163.66
2018-12-23T23:50:20.513Z,100167.62
2018-12-23T23:53:02.583Z,100164.64
2018-12-23T23:55:23.590Z,100158.35
2018-12-23T23:57:53.361Z,100159.16
